createdAt,value
2023-03-19T00:01:55.056Z,4.76
2023-03-19T00:04:25.963Z,4.74
2023-03-19T00:06:55.480Z,4.70
2023-03-19T00:09:27.042Z,4.65
2023-03-19T00:11:56.465Z,4.61
2023-03-19T00:14:25.484Z,4.60
2023-03-19T00:16:57.248Z,4.57
2023-03-19T00:19:28.390Z,4.56
2023-03-19T00:22:00.866Z,4.54
2023-03-19T00:24:30.770Z,4.54
2023-03-19T00:26:59.627Z,4.52
2023-03-19T00:29:31.351Z,4.53
2023-03-19T00:32:01.608Z,4.52
2023-03-19T00:34:31.066Z,4.58
2023-03-19T00:36:59.691Z,4.57
2023-03-19T00:39:31.517Z,4.57
2023-03-19T00:42:02.017Z,4.54
2023-03-19T00:44:31.659Z,4.51
2023-03-19T00:47:00.717Z,4.49
2023-03-19T00:52:12.905Z,4.54
2023-03-19T00:54:44.015Z,4.58
2023-03-19T00:57:12.566Z,4.63
2023-03-19T00:59:44.868Z,4.68
2023-03-19T01:02:15.812Z,4.69
2023-03-19T01:04:45.399Z,4.66
2023-03-19T01:07:14.443Z,4.69
2023-03-19T01:09:45.536Z,4.66
2023-03-19T01:12:14.380Z,4.64
2023-03-19T01:14:43.528Z,4.63
2023-03-19T01:17:12.734Z,4.55
2023-03-19T01:19:41.375Z,4.50
2023-03-19T01:22:09.990Z,4.57
2023-03-19T01:24:39.469Z,4.58
2023-03-19T01:27:08.337Z,4.59
2023-03-19T01:29:41.166Z,4.60
2023-03-19T01:32:27.845Z,4.60
2023-03-19T01:38:12.859Z,4.60
2023-03-19T01:40:46.395Z,4.58
2023-03-19T01:43:23.246Z,4.56
2023-03-19T01:46:26.874Z,4.53
2023-03-19T01:49:37.721Z,4.57
2023-03-19T02:01:51.182Z,4.51
2023-03-19T02:04:56.699Z,4.48
2023-03-19T02:07:46.442Z,4.49
2023-03-19T02:10:36.087Z,4.50
2023-03-19T02:13:06.941Z,4.49
2023-03-19T02:15:37.575Z,4.48
2023-03-19T02:18:08.566Z,4.53
2023-03-19T02:21:01.585Z,4.58
2023-03-19T02:24:34.643Z,4.61
2023-03-19T02:27:31.833Z,4.61
2023-03-19T02:30:47.326Z,4.49
2023-03-19T02:33:30.841Z,4.43
2023-03-19T02:36:03.583Z,4.40
2023-03-19T02:48:34.364Z,4.31
2023-03-19T02:54:42.362Z,4.20
2023-03-19T03:18:58.636Z,4.39
2023-03-19T03:21:37.156Z,4.39
2023-03-19T03:24:06.685Z,4.39
2023-03-19T03:26:41.877Z,4.35
2023-03-19T03:29:15.700Z,4.29
2023-03-19T03:31:45.928Z,4.27
2023-03-19T03:34:35.253Z,4.28
2023-03-19T03:40:15.762Z,4.33
2023-03-19T03:42:47.809Z,4.31
2023-03-19T03:45:19.688Z,4.26
2023-03-19T03:50:52.240Z,4.23
2023-03-19T03:53:41.653Z,4.20
2023-03-19T03:56:11.969Z,4.22
2023-03-19T03:58:40.870Z,4.23
2023-03-19T04:01:15.690Z,4.24
2023-03-19T04:04:06.195Z,4.26
2023-03-19T04:06:40.217Z,4.24
2023-03-19T04:09:27.737Z,4.23
2023-03-19T04:11:57.624Z,4.24
2023-03-19T04:14:28.859Z,4.23
2023-03-19T04:21:01.173Z,4.20
2023-03-19T04:23:31.413Z,4.14
2023-03-19T04:26:14.005Z,4.16
2023-03-19T04:29:02.934Z,4.20
2023-03-19T04:34:25.442Z,4.13
2023-03-19T04:36:57.227Z,4.12
2023-03-19T04:39:31.172Z,4.21
2023-03-19T04:42:19.629Z,4.24
2023-03-19T04:53:02.432Z,4.36
2023-03-19T04:55:39.645Z,4.40
2023-03-19T04:58:20.895Z,4.44
2023-03-19T05:01:12.207Z,4.42
2023-03-19T05:06:45.632Z,4.36
2023-03-19T05:09:14.999Z,4.38
2023-03-19T05:12:02.405Z,4.37
2023-03-19T05:19:01.533Z,4.50
2023-03-19T05:21:35.132Z,4.57
2023-03-19T05:27:13.475Z,4.55
2023-03-19T05:30:13.929Z,4.51
2023-03-19T05:33:05.303Z,4.47
2023-03-19T05:35:40.200Z,4.47
2023-03-19T05:40:24.860Z,4.56
2023-03-19T05:43:15.738Z,4.53
2023-03-19T05:57:47.226Z,4.63
2023-03-19T06:03:32.761Z,4.66
2023-03-19T06:15:08.832Z,4.70
2023-03-19T06:17:51.705Z,4.70
2023-03-19T06:55:51.896Z,5.05
2023-03-19T08:16:20.239Z,5.28
2023-03-19T08:51:44.911Z,5.77
2023-03-19T08:54:52.977Z,5.84
2023-03-19T19:36:49.410Z,6.08
2023-03-19T20:50:01.277Z,6.64
